Time;durP1;ratioP1;P1;durP2;ratioP2;P2;SDS_P1;SDS_P2;PMS_P1;PMS_P2;Temp;Humidity;BMP_temperature;BMP_pressure;BME280_temperature;BME280_humidity;BME280_pressure;Samples;Min_cycle;Max_cycle;Signal;HPM_P1;HPM_P2
2022/03/11 00:00:00;;;;;;;5.53;4.93;;;5.90;83.20;;;;;;476833;249;27545;-70
2022/03/11 00:02:02;;;;;;;6.87;4.78;;;5.90;83.20;;;;;;476854;249;27528;-70
2022/03/11 00:04:03;;;;;;;5.60;4.80;;;5.80;83.50;;;;;;476851;249;27603;-70
2022/03/11 00:06:04;;;;;;;8.43;5.37;;;5.80;83.70;;;;;;476834;249;27646;-70
2022/03/11 00:08:05;;;;;;;7.15;5.00;;;5.70;84.10;;;;;;476853;249;27972;-72
2022/03/11 00:10:07;;;;;;;11.02;6.00;;;5.70;84.10;;;;;;476844;249;28144;-70
2022/03/11 00:12:08;;;;;;;9.27;5.35;;;5.70;84.30;;;;;;476868;249;27539;-73
2022/03/11 00:14:09;;;;;;;9.00;5.30;;;5.70;84.30;;;;;;476846;249;27528;-70
2022/03/11 00:16:11;;;;;;;7.32;5.20;;;5.70;84.30;;;;;;476843;249;27579;-72
2022/03/11 00:18:13;;;;;;;7.05;5.30;;;5.60;84.70;;;;;;476844;249;27515;-72
2022/03/11 00:20:19;;;;;;;7.37;5.07;;;5.50;85.30;;;;;;476790;249;27544;-70
2022/03/11 00:22:15;;;;;;;6.60;5.10;;;5.40;86.20;;;;;;476520;249;27535;-73
2022/03/11 00:24:15;;;;;;;7.18;5.40;;;5.50;85.70;;;;;;476882;249;28052;-70
2022/03/11 00:26:17;;;;;;;7.50;4.80;;;5.40;86.10;;;;;;476845;249;28176;-70
2022/03/11 00:28:18;;;;;;;8.05;4.90;;;5.40;85.80;;;;;;476832;249;27619;-70
2022/03/11 00:30:19;;;;;;;5.62;5.07;;;5.50;85.70;;;;;;476842;249;27620;-71
2022/03/11 00:32:21;;;;;;;10.07;5.30;;;5.40;85.60;;;;;;476845;249;27987;-72
2022/03/11 00:34:22;;;;;;;6.12;4.85;;;5.50;85.70;;;;;;476859;249;27532;-70
2022/03/11 00:36:23;;;;;;;6.22;5.05;;;5.40;85.80;;;;;;476876;249;27650;-70
2022/03/11 00:38:25;;;;;;;8.77;5.40;;;5.40;86.20;;;;;;476847;249;27973;-70
2022/03/11 00:40:26;;;;;;;7.05;5.35;;;5.30;86.40;;;;;;476833;249;28044;-70
2022/03/11 00:42:27;;;;;;;8.98;5.25;;;5.30;86.80;;;;;;476870;249;27565;-73
2022/03/11 00:44:29;;;;;;;5.55;4.65;;;5.20;86.90;;;;;;476850;249;27521;-70
2022/03/11 00:46:29;;;;;;;5.53;4.93;;;5.20;87.40;;;;;;476765;249;27672;-71
2022/03/11 00:48:31;;;;;;;5.60;4.40;;;5.20;86.80;;;;;;476842;249;27577;-70
2022/03/11 00:50:32;;;;;;;6.70;4.80;;;5.20;87.50;;;;;;476839;249;27627;-70
2022/03/11 00:52:33;;;;;;;6.60;4.95;;;5.20;86.80;;;;;;476827;249;28113;-71
2022/03/11 00:54:34;;;;;;;6.10;4.55;;;5.20;87.20;;;;;;476829;249;27991;-70
2022/03/11 00:56:36;;;;;;;7.28;5.15;;;5.20;87.20;;;;;;476819;249;28023;-70
2022/03/11 00:58:37;;;;;;;6.30;4.75;;;5.10;87.40;;;;;;476786;249;27574;-70
2022/03/11 01:00:38;;;;;;;4.87;4.10;;;5.10;87.60;;;;;;476818;249;27647;-69
2022/03/11 01:02:39;;;;;;;5.50;4.20;;;5.00;88.40;;;;;;476865;249;27930;-70
2022/03/11 01:04:41;;;;;;;8.10;5.10;;;5.00;88.90;;;;;;476863;249;27539;-70
2022/03/11 01:06:42;;;;;;;5.45;4.80;;;5.00;89.00;;;;;;476823;249;27568;-70
2022/03/11 01:08:43;;;;;;;5.97;4.40;;;4.90;89.50;;;;;;476826;249;27979;-70
2022/03/11 01:10:44;;;;;;;6.70;4.43;;;4.90;89.50;;;;;;476812;249;28017;-70
2022/03/11 01:12:46;;;;;;;4.90;4.40;;;4.90;89.40;;;;;;476849;249;27545;-73
2022/03/11 01:14:47;;;;;;;6.53;4.68;;;5.00;89.20;;;;;;476834;249;27559;-70
2022/03/11 01:16:48;;;;;;;5.35;4.72;;;4.90;89.30;;;;;;476804;249;27562;-71
2022/03/11 01:18:49;;;;;;;5.72;4.43;;;4.80;90.10;;;;;;476787;249;27519;-70
2022/03/11 01:20:51;;;;;;;5.70;4.20;;;4.70;90.30;;;;;;476809;249;27551;-70
2022/03/11 01:22:52;;;;;;;4.75;4.20;;;4.70;90.50;;;;;;476785;249;27542;-71
2022/03/11 01:24:53;;;;;;;4.22;3.78;;;4.70;90.60;;;;;;476832;249;27995;-70
2022/03/11 01:26:54;;;;;;;4.53;4.10;;;4.60;90.70;;;;;;476793;249;28040;-70
2022/03/11 01:28:56;;;;;;;6.32;4.68;;;4.60;90.90;;;;;;476827;249;27959;-70
2022/03/11 01:30:57;;;;;;;7.35;4.82;;;4.60;90.70;;;;;;476841;249;27563;-70
2022/03/11 01:32:58;;;;;;;6.60;4.70;;;4.70;90.70;;;;;;476821;249;27556;-72
2022/03/11 01:34:59;;;;;;;6.53;4.90;;;4.60;90.70;;;;;;476820;249;27526;-70
2022/03/11 01:37:01;;;;;;;5.45;4.78;;;4.60;90.80;;;;;;476801;249;27559;-70
2022/03/11 01:39:02;;;;;;;5.82;4.50;;;4.50;91.00;;;;;;476835;249;27548;-71
2022/03/11 01:41:03;;;;;;;5.35;4.53;;;4.50;91.10;;;;;;476799;249;27576;-70
2022/03/11 01:43:04;;;;;;;5.85;4.60;;;4.50;91.10;;;;;;476819;249;28018;-71
2022/03/11 01:45:06;;;;;;;8.52;4.95;;;4.50;91.30;;;;;;476842;249;28052;-70
2022/03/11 01:47:07;;;;;;;5.72;4.37;;;4.40;91.60;;;;;;476778;249;28166;-70
2022/03/11 01:49:09;;;;;;;6.45;5.00;;;4.40;91.70;;;;;;476815;249;27536;-70
2022/03/11 01:51:10;;;;;;;6.28;4.70;;;4.40;91.60;;;;;;476856;249;27595;-70
2022/03/11 01:53:11;;;;;;;6.57;5.22;;;4.40;91.80;;;;;;476846;249;27558;-71
2022/03/11 01:55:12;;;;;;;5.65;4.55;;;4.40;91.90;;;;;;476800;249;27517;-70
2022/03/11 01:57:13;;;;;;;5.68;4.65;;;4.40;91.90;;;;;;476813;249;27618;-70
2022/03/11 01:59:15;;;;;;;6.37;4.87;;;4.50;92.00;;;;;;476817;249;27548;-73
2022/03/11 02:01:16;;;;;;;6.47;5.37;;;4.50;92.00;;;;;;476825;249;27530;-70
2022/03/11 02:03:17;;;;;;;7.25;5.45;;;4.40;92.00;;;;;;476827;249;28073;-71
2022/03/11 02:05:18;;;;;;;8.20;5.78;;;4.40;92.20;;;;;;476819;249;27970;-70
2022/03/11 02:07:20;;;;;;;6.20;5.25;;;4.40;92.20;;;;;;476807;249;28109;-70
2022/03/11 02:09:21;;;;;;;6.40;5.72;;;4.30;92.50;;;;;;476829;249;27562;-73
2022/03/11 02:11:22;;;;;;;6.43;4.97;;;4.30;92.60;;;;;;476845;249;27523;-70
2022/03/11 02:13:23;;;;;;;6.47;4.82;;;4.30;92.70;;;;;;476841;249;27551;-70
2022/03/11 02:15:25;;;;;;;6.15;5.05;;;4.30;93.00;;;;;;476842;249;27504;-70
2022/03/11 02:17:26;;;;;;;6.20;4.80;;;4.20;93.30;;;;;;476838;249;27560;-70
2022/03/11 02:19:27;;;;;;;5.80;4.40;;;4.10;93.50;;;;;;476842;249;27922;-73
2022/03/11 02:21:28;;;;;;;8.52;5.30;;;4.10;93.50;;;;;;476863;249;27528;-70
2022/03/11 02:23:30;;;;;;;4.70;4.20;;;4.00;93.90;;;;;;476849;249;27641;-71
2022/03/11 02:25:31;;;;;;;7.60;5.20;;;4.10;93.90;;;;;;476805;249;28031;-70
2022/03/11 02:27:32;;;;;;;6.78;5.20;;;4.00;93.90;;;;;;476800;249;28175;-71
2022/03/11 02:29:33;;;;;;;8.93;5.22;;;4.00;94.00;;;;;;476858;249;27587;-73
2022/03/11 02:31:35;;;;;;;6.10;4.87;;;4.00;94.20;;;;;;476822;249;27594;-78
2022/03/11 02:33:36;;;;;;;7.25;5.10;;;4.00;94.20;;;;;;476836;249;27563;-70
2022/03/11 02:35:37;;;;;;;5.43;4.65;;;3.90;94.40;;;;;;476832;249;27560;-70
2022/03/11 02:37:38;;;;;;;4.97;4.47;;;3.90;94.60;;;;;;476826;249;27581;-70
2022/03/11 02:39:40;;;;;;;9.02;5.82;;;3.90;94.90;;;;;;476832;248;27678;-73
2022/03/11 02:41:43;;;;;;;7.37;5.20;;;3.80;95.10;;;;;;476829;249;27515;-70
2022/03/11 02:43:42;;;;;;;6.45;5.10;;;3.80;95.00;;;;;;476730;249;27547;-71
2022/03/11 02:45:43;;;;;;;7.50;5.30;;;3.80;95.10;;;;;;476817;249;27958;-70
2022/03/11 02:47:45;;;;;;;5.15;4.65;;;3.80;95.30;;;;;;476835;249;27992;-70
2022/03/11 02:49:46;;;;;;;5.28;4.70;;;3.70;95.40;;;;;;476860;249;28136;-72
2022/03/11 02:51:47;;;;;;;6.60;5.20;;;3.70;95.80;;;;;;476843;248;27770;-70
2022/03/11 02:53:48;;;;;;;8.50;5.45;;;3.70;95.80;;;;;;476581;249;27633;-71
2022/03/11 02:55:50;;;;;;;6.93;5.60;;;3.70;96.00;;;;;;476844;249;27523;-70
2022/03/11 02:57:51;;;;;;;6.87;5.62;;;3.70;96.00;;;;;;476609;249;27555;-70
2022/03/11 02:59:53;;;;;;;7.37;5.00;;;3.70;96.20;;;;;;476850;249;27667;-72
2022/03/11 03:01:53;;;;;;;8.23;5.65;;;3.70;96.40;;;;;;476815;249;27516;-71
2022/03/11 03:03:55;;;;;;;9.07;5.40;;;3.70;96.30;;;;;;476814;249;27618;-71
2022/03/11 03:05:56;;;;;;;9.35;6.05;;;3.70;96.40;;;;;;476805;249;27500;-71
2022/03/11 03:07:57;;;;;;;7.80;5.72;;;3.70;96.60;;;;;;476829;249;28113;-71
2022/03/11 03:09:58;;;;;;;6.25;4.87;;;3.70;96.70;;;;;;476841;249;28040;-72
2022/03/11 03:12:00;;;;;;;7.47;5.97;;;3.70;96.90;;;;;;476801;249;28046;-71
2022/03/11 03:14:01;;;;;;;7.43;5.68;;;3.60;96.90;;;;;;476796;249;27551;-71
2022/03/11 03:16:02;;;;;;;6.97;5.80;;;3.60;97.10;;;;;;476832;249;27608;-70
2022/03/11 03:18:03;;;;;;;10.90;6.75;;;3.50;97.40;;;;;;476835;249;27508;-71
2022/03/11 03:20:05;;;;;;;8.00;6.53;;;3.60;97.40;;;;;;476822;249;27626;-72
2022/03/11 03:22:06;;;;;;;9.60;6.75;;;3.60;97.50;;;;;;476817;249;27593;-70
2022/03/11 03:24:07;;;;;;;12.13;7.43;;;3.60;97.70;;;;;;476813;249;27581;-71
2022/03/11 03:26:08;;;;;;;10.00;6.20;;;3.60;97.80;;;;;;476807;249;27559;-71
2022/03/11 03:28:10;;;;;;;8.65;6.15;;;3.50;97.80;;;;;;476844;249;27511;-71
2022/03/11 03:30:11;;;;;;;7.35;6.20;;;3.50;98.10;;;;;;476841;249;27665;-72
2022/03/11 03:32:12;;;;;;;12.55;6.80;;;3.50;98.20;;;;;;476832;249;27963;-70
2022/03/11 03:34:13;;;;;;;7.05;6.12;;;3.50;98.60;;;;;;476821;249;29133;-72
2022/03/11 03:36:15;;;;;;;8.25;5.82;;;3.40;98.70;;;;;;476842;249;28202;-74
2022/03/11 03:38:16;;;;;;;8.10;5.97;;;3.40;98.80;;;;;;476836;249;27589;-71
2022/03/11 03:40:17;;;;;;;8.40;6.57;;;3.30;98.90;;;;;;476859;249;27574;-71
2022/03/11 03:42:18;;;;;;;9.63;6.40;;;3.30;99.20;;;;;;476819;249;27616;-71
2022/03/11 03:44:20;;;;;;;12.52;7.00;;;3.30;99.20;;;;;;476804;249;27550;-71
2022/03/11 03:46:21;;;;;;;9.85;6.93;;;3.30;99.40;;;;;;476840;249;27909;-73
2022/03/11 03:48:22;;;;;;;12.23;7.03;;;3.30;99.60;;;;;;476844;249;27536;-71
2022/03/11 03:50:23;;;;;;;7.65;6.47;;;3.30;99.80;;;;;;476873;249;27550;-72
2022/03/11 03:52:27;;;;;;;7.65;6.03;;;3.30;99.90;;;;;;476895;249;27970;-71
2022/03/11 03:54:26;;;;;;;8.63;6.22;;;3.30;99.90;;;;;;476713;249;28092;-71
2022/03/11 03:56:27;;;;;;;10.70;6.43;;;3.30;99.90;;;;;;476864;249;28042;-71
2022/03/11 03:58:28;;;;;;;9.93;6.55;;;3.20;99.90;;;;;;476869;249;28072;-71
2022/03/11 04:00:30;;;;;;;9.68;6.00;;;3.30;99.90;;;;;;476852;249;27551;-71
2022/03/11 04:02:32;;;;;;;9.65;6.18;;;3.20;99.90;;;;;;476839;249;27515;-71
2022/03/11 04:04:32;;;;;;;12.35;6.62;;;3.20;99.90;;;;;;476767;249;27631;-72
2022/03/11 04:06:33;;;;;;;7.95;6.20;;;3.20;99.90;;;;;;476843;249;27743;-70
2022/03/11 04:08:35;;;;;;;9.18;6.62;;;3.20;99.90;;;;;;476813;249;27518;-71
2022/03/11 04:10:36;;;;;;;9.07;6.45;;;3.10;99.90;;;;;;476863;249;27587;-71
2022/03/11 04:12:37;;;;;;;8.13;5.82;;;3.10;99.90;;;;;;476839;249;27637;-70
2022/03/11 04:14:38;;;;;;;9.00;6.35;;;3.10;99.90;;;;;;476815;249;27552;-71
2022/03/11 04:16:40;;;;;;;10.98;6.18;;;3.10;99.90;;;;;;476905;249;27504;-70
2022/03/11 04:18:41;;;;;;;10.13;7.05;;;3.10;99.90;;;;;;476838;249;27970;-71
2022/03/11 04:20:42;;;;;;;8.60;6.37;;;3.00;99.90;;;;;;476844;249;28028;-72
2022/03/11 04:22:44;;;;;;;12.57;7.80;;;3.00;99.90;;;;;;476838;249;28072;-71
2022/03/11 04:24:45;;;;;;;9.13;6.43;;;3.00;99.90;;;;;;476826;249;27551;-71
2022/03/11 04:26:46;;;;;;;11.55;7.10;;;3.00;99.90;;;;;;476840;249;27546;-70
2022/03/11 04:28:47;;;;;;;9.27;7.15;;;3.00;99.90;;;;;;476861;249;27662;-71
2022/03/11 04:30:48;;;;;;;9.35;6.95;;;2.90;99.90;;;;;;476827;249;27677;-71
2022/03/11 04:32:50;;;;;;;10.00;7.03;;;2.90;99.90;;;;;;476811;249;27527;-71
2022/03/11 04:34:51;;;;;;;9.75;6.37;;;2.90;99.90;;;;;;476810;249;27559;-70
2022/03/11 04:36:52;;;;;;;8.93;6.57;;;2.90;99.90;;;;;;476813;249;27554;-70
2022/03/11 04:38:53;;;;;;;11.10;6.80;;;2.90;99.90;;;;;;476817;249;27549;-71
2022/03/11 04:40:55;;;;;;;8.80;6.45;;;2.80;99.90;;;;;;476811;249;28061;-71
2022/03/11 04:42:56;;;;;;;9.65;7.35;;;2.80;99.90;;;;;;476828;249;27976;-71
2022/03/11 04:44:57;;;;;;;10.88;6.87;;;2.80;99.90;;;;;;476837;249;28109;-71
2022/03/11 04:46:58;;;;;;;10.65;7.45;;;2.80;99.90;;;;;;476815;249;28979;-70
2022/03/11 04:49:00;;;;;;;11.10;7.30;;;2.80;99.90;;;;;;476817;249;27611;-71
2022/03/11 04:51:01;;;;;;;11.90;7.50;;;2.70;99.90;;;;;;476843;249;27575;-71
2022/03/11 04:53:03;;;;;;;11.70;7.60;;;2.70;99.90;;;;;;476830;249;27534;-71
2022/03/11 04:55:03;;;;;;;10.98;8.48;;;2.70;99.90;;;;;;476830;249;27620;-71
2022/03/11 04:57:05;;;;;;;13.68;8.70;;;2.70;99.90;;;;;;476819;249;27530;-70
2022/03/11 04:59:06;;;;;;;12.30;8.48;;;2.70;99.90;;;;;;476830;249;27508;-71
2022/03/11 05:01:07;;;;;;;9.15;7.75;;;2.60;99.90;;;;;;476839;249;27577;-72
2022/03/11 05:03:08;;;;;;;14.32;9.23;;;2.60;99.90;;;;;;476857;249;28002;-71
2022/03/11 05:05:10;;;;;;;11.77;8.75;;;2.60;99.90;;;;;;476840;249;28029;-71
2022/03/11 05:07:11;;;;;;;13.65;8.90;;;2.60;99.90;;;;;;476847;249;27971;-71
2022/03/11 05:09:12;;;;;;;12.93;8.13;;;2.50;99.90;;;;;;476835;249;27531;-70
2022/03/11 05:11:13;;;;;;;11.50;9.18;;;2.50;99.90;;;;;;476856;249;27638;-73
2022/03/11 05:13:15;;;;;;;14.38;8.80;;;2.50;99.90;;;;;;476815;249;27507;-71
2022/03/11 05:15:16;;;;;;;12.27;8.90;;;2.50;99.90;;;;;;476829;248;27659;-71
2022/03/11 05:17:17;;;;;;;11.18;8.10;;;2.50;99.90;;;;;;476811;249;27569;-70
2022/03/11 05:19:19;;;;;;;9.75;7.00;;;2.50;99.90;;;;;;476781;249;27525;-71
2022/03/11 05:21:20;;;;;;;12.32;8.90;;;2.40;99.90;;;;;;476800;249;27578;-71
2022/03/11 05:23:21;;;;;;;10.90;7.57;;;2.40;99.90;;;;;;476819;249;27959;-71
2022/03/11 05:25:22;;;;;;;10.30;7.82;;;2.30;99.90;;;;;;476798;249;28025;-71
2022/03/11 05:27:24;;;;;;;11.90;8.00;;;2.30;99.90;;;;;;476820;249;28360;-71
2022/03/11 05:29:25;;;;;;;12.05;8.23;;;2.30;99.90;;;;;;476839;249;27532;-72
2022/03/11 05:31:26;;;;;;;10.30;7.40;;;2.30;99.90;;;;;;476836;249;27547;-72
2022/03/11 05:33:27;;;;;;;14.75;10.30;;;2.20;99.90;;;;;;476814;249;27635;-71
2022/03/11 05:35:29;;;;;;;11.85;8.77;;;2.20;99.90;;;;;;476797;249;27551;-71
2022/03/11 05:37:30;;;;;;;10.27;8.05;;;2.30;99.90;;;;;;476814;249;27627;-71
2022/03/11 05:39:31;;;;;;;11.98;8.85;;;2.30;99.90;;;;;;476811;249;27506;-73
2022/03/11 05:41:33;;;;;;;12.98;9.23;;;2.20;99.90;;;;;;476831;249;27556;-73
2022/03/11 05:43:34;;;;;;;10.90;8.48;;;2.20;99.90;;;;;;476835;249;27942;-71
2022/03/11 05:45:35;;;;;;;12.55;9.43;;;2.20;99.90;;;;;;476820;249;28031;-71
2022/03/11 05:47:36;;;;;;;12.37;8.38;;;2.20;99.90;;;;;;476797;249;27613;-71
2022/03/11 05:49:37;;;;;;;11.30;8.80;;;2.20;99.90;;;;;;476803;249;27560;-71
2022/03/11 05:51:39;;;;;;;13.70;9.10;;;2.20;99.90;;;;;;476839;249;27553;-72
2022/03/11 05:53:40;;;;;;;13.38;8.50;;;2.20;99.90;;;;;;476824;249;27612;-71
2022/03/11 05:55:41;;;;;;;12.48;8.48;;;2.20;99.90;;;;;;476829;249;27562;-71
2022/03/11 05:57:42;;;;;;;14.38;9.52;;;2.20;99.90;;;;;;476833;249;27520;-71
2022/03/11 05:59:44;;;;;;;17.25;10.35;;;2.10;99.90;;;;;;476830;249;27518;-70
2022/03/11 06:01:45;;;;;;;16.20;10.40;;;2.10;99.90;;;;;;476830;249;28091;-72
2022/03/11 06:03:46;;;;;;;16.40;11.80;;;2.10;99.90;;;;;;476807;249;27981;-71
2022/03/11 06:05:47;;;;;;;16.83;10.35;;;2.10;99.90;;;;;;476833;249;28045;-71
2022/03/11 06:07:49;;;;;;;18.00;11.10;;;2.10;99.90;;;;;;476838;249;29528;-70
2022/03/11 06:09:50;;;;;;;17.85;11.00;;;2.10;99.90;;;;;;476826;249;27548;-71
2022/03/11 06:11:53;;;;;;;16.60;10.98;;;2.10;99.90;;;;;;476848;249;27583;-74
2022/03/11 06:13:52;;;;;;;14.13;10.13;;;2.20;99.90;;;;;;476748;249;27595;-71
2022/03/11 06:15:54;;;;;;;16.33;11.30;;;2.20;99.90;;;;;;476841;249;27565;-71
2022/03/11 06:17:55;;;;;;;16.45;11.38;;;2.20;99.90;;;;;;476846;249;27511;-71
2022/03/11 06:19:56;;;;;;;14.95;10.52;;;2.20;99.90;;;;;;476847;249;27960;-71
2022/03/11 06:21:59;;;;;;;15.00;10.40;;;2.20;99.90;;;;;;476869;249;28048;-72
2022/03/11 06:23:59;;;;;;;15.55;9.90;;;2.10;99.90;;;;;;476792;249;27524;-71
2022/03/11 06:26:00;;;;;;;19.80;11.02;;;2.10;99.90;;;;;;476871;249;27587;-71
2022/03/11 06:28:01;;;;;;;14.40;10.15;;;2.20;99.90;;;;;;476851;249;27543;-71
2022/03/11 06:30:03;;;;;;;13.77;10.15;;;2.10;99.90;;;;;;476873;249;27506;-71
2022/03/11 06:32:04;;;;;;;12.40;9.75;;;2.20;99.90;;;;;;476859;249;27571;-71
2022/03/11 06:34:05;;;;;;;14.02;10.60;;;2.20;99.90;;;;;;476866;249;27616;-71
2022/03/11 06:36:06;;;;;;;15.05;9.02;;;2.20;99.90;;;;;;476880;249;28063;-71
2022/03/11 06:38:08;;;;;;;16.17;9.95;;;2.20;99.90;;;;;;476895;249;28042;-74
2022/03/11 06:40:09;;;;;;;13.30;9.32;;;2.20;99.90;;;;;;476860;249;27979;-71
2022/03/11 06:42:10;;;;;;;14.07;9.43;;;2.30;99.90;;;;;;476865;249;27661;-72
2022/03/11 06:44:11;;;;;;;14.00;9.50;;;2.30;99.90;;;;;;476841;249;27508;-71
2022/03/11 06:46:13;;;;;;;16.65;10.80;;;2.30;99.90;;;;;;476832;249;27550;-71
2022/03/11 06:48:14;;;;;;;14.75;10.55;;;2.20;99.90;;;;;;476844;249;27588;-71
2022/03/11 06:50:15;;;;;;;15.77;10.40;;;2.30;99.90;;;;;;476810;249;27611;-71
2022/03/11 06:52:16;;;;;;;17.23;11.30;;;2.30;99.90;;;;;;476849;249;27554;-71
2022/03/11 06:54:18;;;;;;;18.00;11.77;;;2.30;99.90;;;;;;476870;249;27987;-71
2022/03/11 06:56:19;;;;;;;16.90;11.77;;;2.40;99.90;;;;;;476840;249;27654;-71
2022/03/11 06:58:20;;;;;;;15.98;11.12;;;2.40;99.90;;;;;;476830;249;27550;-73
2022/03/11 07:00:21;;;;;;;14.15;9.95;;;2.40;99.90;;;;;;476858;249;27512;-71
2022/03/11 07:02:23;;;;;;;13.88;9.80;;;2.40;99.90;;;;;;476851;249;27547;-71
2022/03/11 07:04:24;;;;;;;15.30;10.93;;;2.40;99.90;;;;;;476824;249;27509;-71
2022/03/11 07:06:25;;;;;;;15.60;10.60;;;2.40;99.90;;;;;;476832;249;28086;-71
2022/03/11 07:08:28;;;;;;;17.37;10.63;;;2.50;99.90;;;;;;476858;249;27994;-72
2022/03/11 07:10:28;;;;;;;14.87;9.80;;;2.50;99.90;;;;;;476784;249;27661;-71
2022/03/11 07:12:31;;;;;;;17.92;11.38;;;2.50;99.90;;;;;;476827;249;27535;-71
2022/03/11 07:14:33;;;;;;;17.35;10.60;;;2.60;99.90;;;;;;476783;249;27553;-71
2022/03/11 07:16:32;;;;;;;16.85;11.00;;;2.60;99.90;;;;;;476720;249;27523;-71
2022/03/11 07:18:33;;;;;;;16.62;10.50;;;2.70;99.90;;;;;;476811;249;28099;-71
2022/03/11 07:20:34;;;;;;;15.25;10.48;;;2.70;99.90;;;;;;476838;249;27954;-71
2022/03/11 07:22:35;;;;;;;13.70;10.80;;;2.70;99.90;;;;;;476820;249;28023;-71
2022/03/11 07:24:38;;;;;;;16.58;11.07;;;2.70;99.90;;;;;;476840;249;27605;-75
2022/03/11 07:26:38;;;;;;;16.02;11.38;;;2.80;99.90;;;;;;476752;249;27562;-71
2022/03/11 07:28:39;;;;;;;17.50;11.75;;;2.80;99.90;;;;;;476832;249;27557;-71
2022/03/11 07:30:41;;;;;;;17.77;11.60;;;2.90;99.90;;;;;;476834;249;27502;-71
2022/03/11 07:32:42;;;;;;;17.75;12.25;;;2.90;99.90;;;;;;476792;249;27547;-71
2022/03/11 07:34:43;;;;;;;20.62;12.98;;;3.00;99.90;;;;;;476836;249;28087;-70
2022/03/11 07:36:44;;;;;;;18.85;11.73;;;3.00;99.90;;;;;;476850;249;28025;-70
2022/03/11 07:38:45;;;;;;;17.60;11.82;;;3.00;99.90;;;;;;476851;249;27562;-72
2022/03/11 07:40:47;;;;;;;17.75;11.90;;;3.10;99.90;;;;;;476842;249;27512;-70
2022/03/11 07:42:48;;;;;;;17.62;11.30;;;3.10;99.90;;;;;;476827;248;27558;-71
2022/03/11 07:44:49;;;;;;;16.90;11.12;;;3.20;99.90;;;;;;476845;249;27653;-73
2022/03/11 07:46:51;;;;;;;18.12;12.02;;;3.20;99.90;;;;;;476833;249;27566;-71
2022/03/11 07:48:52;;;;;;;17.65;10.68;;;3.30;99.90;;;;;;476832;249;28029;-71
2022/03/11 07:50:53;;;;;;;15.80;10.18;;;3.30;99.90;;;;;;476824;249;28000;-70
2022/03/11 07:52:54;;;;;;;19.25;11.20;;;3.30;99.90;;;;;;476837;249;27524;-71
2022/03/11 07:54:56;;;;;;;19.15;11.77;;;3.50;99.90;;;;;;476831;249;27544;-71
2022/03/11 07:56:57;;;;;;;18.95;12.15;;;3.50;99.90;;;;;;476816;249;27519;-70
2022/03/11 07:58:59;;;;;;;22.62;12.82;;;3.60;99.90;;;;;;476821;249;27582;-70
2022/03/11 08:00:59;;;;;;;20.17;12.75;;;3.70;99.90;;;;;;476770;249;27509;-70
2022/03/11 08:03:01;;;;;;;20.20;12.27;;;3.70;99.90;;;;;;476825;249;28042;-71
2022/03/11 08:05:02;;;;;;;18.05;11.60;;;3.80;99.90;;;;;;476833;249;28028;-71
2022/03/11 08:07:06;;;;;;;19.00;12.02;;;3.80;99.90;;;;;;476842;249;27517;-71
2022/03/11 08:09:04;;;;;;;17.83;12.43;;;3.90;99.90;;;;;;476696;249;27638;-71
2022/03/11 08:11:06;;;;;;;22.25;13.07;;;4.00;99.90;;;;;;476812;249;27566;-70
2022/03/11 08:13:07;;;;;;;16.15;10.95;;;4.00;99.90;;;;;;476855;249;27650;-71
2022/03/11 08:15:11;;;;;;;16.08;11.10;;;4.00;99.90;;;;;;476859;249;28022;-73
2022/03/11 08:17:10;;;;;;;17.85;12.75;;;4.10;99.90;;;;;;476706;249;28045;-70
2022/03/11 08:19:11;;;;;;;20.40;12.40;;;4.20;99.90;;;;;;476859;248;27555;-71
2022/03/11 08:21:14;;;;;;;18.05;11.45;;;4.30;99.90;;;;;;476861;249;27495;-71
2022/03/11 08:23:13;;;;;;;18.15;12.85;;;4.40;99.90;;;;;;476760;249;27508;-71
2022/03/11 08:25:15;;;;;;;17.75;13.13;;;4.40;99.90;;;;;;476791;249;27611;-72
2022/03/11 08:27:17;;;;;;;19.62;12.85;;;4.40;99.90;;;;;;476839;249;27503;-71
2022/03/11 08:29:17;;;;;;;20.05;13.35;;;4.50;99.90;;;;;;476733;249;28129;-71
2022/03/11 08:31:18;;;;;;;17.02;11.40;;;4.50;99.90;;;;;;476780;249;27663;-71
2022/03/11 08:33:22;;;;;;;16.60;12.50;;;4.50;99.90;;;;;;476790;249;27611;-71
2022/03/11 08:35:21;;;;;;;18.17;12.18;;;4.60;99.90;;;;;;476697;249;27574;-72
2022/03/11 08:37:22;;;;;;;21.92;12.65;;;4.70;99.90;;;;;;476749;249;27579;-70
2022/03/11 08:39:23;;;;;;;17.92;12.40;;;4.70;99.90;;;;;;476735;249;28054;-71
2022/03/11 08:41:27;;;;;;;18.60;12.00;;;4.70;99.90;;;;;;476808;249;27968;-71
2022/03/11 08:43:26;;;;;;;17.40;12.20;;;4.80;99.90;;;;;;476744;249;27627;-71
2022/03/11 08:45:27;;;;;;;15.75;10.98;;;4.80;99.90;;;;;;476823;249;27538;-71
2022/03/11 08:47:28;;;;;;;15.88;10.48;;;4.80;99.90;;;;;;476837;249;27566;-70
2022/03/11 08:49:30;;;;;;;16.08;10.70;;;4.90;99.90;;;;;;476842;249;27992;-71
2022/03/11 08:51:31;;;;;;;15.88;10.15;;;5.10;99.90;;;;;;476831;249;28208;-72
2022/03/11 08:53:32;;;;;;;18.52;10.35;;;5.10;99.90;;;;;;476838;249;27634;-71
2022/03/11 08:55:33;;;;;;;12.63;9.65;;;5.20;99.90;;;;;;476841;249;27545;-71
2022/03/11 08:57:37;;;;;;;13.05;9.80;;;5.20;99.90;;;;;;476831;249;27583;-70
2022/03/11 08:59:39;;;;;;;17.08;11.75;;;5.30;99.90;;;;;;476840;249;28014;-70
2022/03/11 09:01:40;;;;;;;20.50;11.90;;;5.40;99.90;;;;;;476811;249;27589;-71
2022/03/11 09:03:41;;;;;;;17.12;10.48;;;5.40;99.90;;;;;;476842;249;27583;-70
2022/03/11 09:05:42;;;;;;;12.95;10.00;;;5.40;99.90;;;;;;476855;249;27512;-71
2022/03/11 09:07:44;;;;;;;16.45;11.30;;;5.30;99.90;;;;;;476847;249;27593;-71
2022/03/11 09:09:45;;;;;;;17.50;11.93;;;5.60;99.90;;;;;;476833;249;27945;-71
2022/03/11 09:11:46;;;;;;;15.02;10.98;;;5.60;99.90;;;;;;476840;249;27571;-71
2022/03/11 09:13:49;;;;;;;16.02;11.48;;;5.70;99.90;;;;;;476850;249;27568;-75
2022/03/11 09:15:49;;;;;;;16.42;11.63;;;5.80;99.90;;;;;;476780;249;27572;-70
2022/03/11 09:17:50;;;;;;;15.02;12.00;;;5.90;99.90;;;;;;476862;249;27549;-70
2022/03/11 09:19:51;;;;;;;23.83;12.57;;;5.90;99.90;;;;;;476837;249;27946;-71
2022/03/11 09:21:52;;;;;;;18.33;12.65;;;6.00;99.90;;;;;;476817;249;27633;-71
2022/03/11 09:23:54;;;;;;;18.30;11.88;;;6.10;99.90;;;;;;476858;249;27569;-74
2022/03/11 09:25:55;;;;;;;18.95;12.43;;;6.10;99.90;;;;;;476857;249;27523;-71
2022/03/11 09:27:56;;;;;;;27.23;14.75;;;6.20;99.90;;;;;;476849;249;28026;-71
2022/03/11 09:29:58;;;;;;;26.02;15.50;;;6.30;99.90;;;;;;476844;249;27508;-70
2022/03/11 09:31:59;;;;;;;24.45;14.70;;;6.40;99.90;;;;;;476825;249;27573;-71
2022/03/11 09:34:00;;;;;;;24.92;13.70;;;6.30;99.90;;;;;;476826;249;27939;-74
2022/03/11 09:36:01;;;;;;;17.00;12.20;;;6.60;99.90;;;;;;476856;249;28030;-71
2022/03/11 09:38:03;;;;;;;19.03;12.40;;;6.70;99.90;;;;;;476834;249;29004;-72
2022/03/11 09:40:04;;;;;;;17.67;12.03;;;6.80;99.90;;;;;;476841;249;28088;-71
2022/03/11 09:42:05;;;;;;;15.67;11.30;;;6.90;99.90;;;;;;476834;249;28368;-71
2022/03/11 09:44:06;;;;;;;18.63;12.23;;;6.80;99.90;;;;;;476839;249;29024;-73
2022/03/11 09:46:08;;;;;;;20.23;12.13;;;7.00;99.90;;;;;;476880;249;28917;-71
2022/03/11 09:48:09;;;;;;;17.97;11.40;;;7.10;99.90;;;;;;476885;249;28297;-71
2022/03/11 09:50:10;;;;;;;16.90;10.60;;;7.10;99.90;;;;;;476888;249;27739;-71
2022/03/11 09:52:11;;;;;;;16.53;11.90;;;7.20;99.90;;;;;;476884;249;28438;-71
2022/03/11 09:54:13;;;;;;;17.60;12.10;;;7.40;99.30;;;;;;476905;249;28921;-73
2022/03/11 09:56:14;;;;;;;20.77;11.60;;;7.50;99.30;;;;;;476934;249;28442;-71
2022/03/11 09:58:15;;;;;;;16.80;11.13;;;7.60;98.60;;;;;;476919;249;28037;-71
2022/03/11 10:00:16;;;;;;;19.03;12.27;;;7.60;98.10;;;;;;476918;249;28077;-71
2022/03/11 10:02:18;;;;;;;18.50;12.43;;;7.80;97.90;;;;;;476914;249;28040;-71
2022/03/11 10:04:19;;;;;;;15.67;10.17;;;7.90;97.90;;;;;;476906;249;28185;-71
2022/03/11 10:06:20;;;;;;;14.13;10.00;;;7.80;98.20;;;;;;476904;249;27758;-71
2022/03/11 10:08:21;;;;;;;15.50;10.60;;;7.70;98.40;;;;;;476902;249;28118;-71
2022/03/11 10:10:23;;;;;;;16.53;12.00;;;8.00;97.80;;;;;;476886;249;28416;-70
2022/03/11 10:12:24;;;;;;;14.03;10.67;;;8.00;96.90;;;;;;476878;249;28524;-70
2022/03/11 10:14:25;;;;;;;14.77;10.90;;;8.00;97.00;;;;;;476877;249;30420;-71
2022/03/11 10:16:26;;;;;;;17.10;11.37;;;8.10;96.90;;;;;;476910;249;27963;-73
2022/03/11 10:18:28;;;;;;;16.00;10.97;;;8.20;96.50;;;;;;476897;248;27903;-74
2022/03/11 10:20:29;;;;;;;16.37;9.80;;;8.10;96.10;;;;;;476885;249;28146;-70
2022/03/11 10:22:31;;;;;;;16.83;10.50;;;8.20;95.80;;;;;;476872;249;28050;-72
2022/03/11 10:24:31;;;;;;;13.33;8.60;;;8.10;96.40;;;;;;476805;249;28148;-70
2022/03/11 10:26:33;;;;;;;15.73;10.40;;;8.10;95.80;;;;;;476844;249;28130;-71
2022/03/11 10:28:34;;;;;;;15.70;10.37;;;8.20;95.50;;;;;;476851;249;28023;-71
2022/03/11 10:30:35;;;;;;;13.90;9.67;;;8.30;95.30;;;;;;476864;249;28174;-71